TimeEST,TemperatureF,Dew PointF,Humidity,Sea Level PressureIn,VisibilityMPH,Wind Direction,Wind SpeedMPH,Gust SpeedMPH,PrecipitationIn,Events,Conditions,WindDirDegrees,DateUTC
12:56 AM,57.0,53.1,87,30.15,10.0,SW,8.1,-,N/A,,Overcast,220,2012-12-04 05:56:00
1:56 AM,57.0,52.0,83,30.15,10.0,SW,5.8,-,N/A,,Overcast,220,2012-12-04 06:56:00
2:56 AM,57.9,52.0,81,30.14,10.0,SSW,8.1,-,N/A,,Mostly Cloudy,200,2012-12-04 07:56:00
3:56 AM,57.9,51.1,78,30.14,10.0,SSW,6.9,-,N/A,,Overcast,210,2012-12-04 08:56:00
4:56 AM,57.0,50.0,77,30.14,10.0,SW,9.2,-,N/A,,Mostly Cloudy,220,2012-12-04 09:56:00
5:56 AM,55.0,48.9,80,30.14,10.0,SW,9.2,-,N/A,,Clear,220,2012-12-04 10:56:00
6:56 AM,54.0,48.9,83,30.14,10.0,SSW,5.8,-,N/A,,Clear,210,2012-12-04 11:56:00
7:56 AM,54.0,48.0,80,30.14,10.0,SW,8.1,-,N/A,,Clear,220,2012-12-04 12:56:00
8:56 AM,55.9,48.0,75,30.14,10.0,SSW,10.4,18.4,N/A,,Clear,210,2012-12-04 13:56:00
9:56 AM,57.9,48.0,70,30.13,10.0,SSW,10.4,21.9,N/A,,Clear,210,2012-12-04 14:56:00
10:56 AM,60.1,48.0,64,30.11,10.0,SSW,12.7,18.4,N/A,,Clear,210,2012-12-04 15:56:00
11:56 AM,63.0,48.0,58,30.05,10.0,SSW,11.5,26.5,N/A,,Partly Cloudy,200,2012-12-04 16:56:00
12:56 PM,64.0,46.9,54,30.02,10.0,SW,15.0,21.9,N/A,,Scattered Clouds,220,2012-12-04 17:56:00
1:56 PM,63.0,46.9,56,30.01,10.0,SSW,9.2,18.4,N/A,,Overcast,210,2012-12-04 18:56:00
2:56 PM,63.0,48.0,58,29.98,10.0,SSW,9.2,-,N/A,,Overcast,210,2012-12-04 19:56:00
3:56 PM,63.0,48.0,58,29.97,10.0,SSW,11.5,20.7,N/A,,Overcast,200,2012-12-04 20:56:00
4:56 PM,62.1,50.0,65,29.96,10.0,SSW,10.4,24.2,N/A,,Overcast,200,2012-12-04 21:56:00
5:14 PM,62.6,50.0,63,29.97,10.0,SW,12.7,24.2,N/A,,Overcast,220,2012-12-04 22:14:00
5:56 PM,61.0,51.1,70,29.96,10.0,SSW,13.8,27.6,N/A,,Overcast,210,2012-12-04 22:56:00
6:56 PM,59.0,53.1,81,29.94,10.0,SSW,16.1,25.3,0.01,,Overcast,210,2012-12-04 23:56:00
7:38 PM,57.2,53.6,88,29.95,3.0,SW,9.2,19.6,0.13,Rain,Rain,230,2012-12-05 00:38:00
7:44 PM,57.2,53.6,88,29.95,2.5,SW,12.7,-,0.15,Rain,Light Rain,220,2012-12-05 00:44:00
7:48 PM,57.2,53.6,88,29.95,3.0,SW,13.8,-,0.16,Rain,Light Rain,230,2012-12-05 00:48:00
7:56 PM,55.9,54.0,93,29.95,4.0,SW,8.1,17.3,0.18,Rain,Light Rain,230,2012-12-05 00:56:00
8:01 PM,55.4,53.6,94,29.94,6.0,SSW,8.1,-,0.00,Rain,Light Rain,210,2012-12-05 01:01:00
8:08 PM,55.4,53.6,94,29.94,7.0,SSW,9.2,-,0.01,,Overcast,210,2012-12-05 01:08:00
8:28 PM,51.8,48.2,88,29.95,2.5,NNW,25.3,32.2,0.07,Rain,Heavy Rain,340,2012-12-05 01:28:00
8:34 PM,51.8,48.2,88,29.97,4.0,NNW,20.7,31.1,0.09,Rain,Light Rain,330,2012-12-05 01:34:00
8:41 PM,50.0,48.2,94,29.98,4.0,NW,16.1,26.5,0.11,Rain,Light Rain,310,2012-12-05 01:41:00
8:47 PM,50.0,46.4,87,29.98,6.0,NW,13.8,23.0,0.11,Rain,Light Rain,320,2012-12-05 01:47:00
8:56 PM,48.9,46.9,93,29.99,10.0,NW,12.7,19.6,0.11,Rain,Light Rain,320,2012-12-05 01:56:00
9:25 PM,46.4,44.6,93,30.01,10.0,NW,17.3,25.3,0.04,Rain,Light Rain,320,2012-12-05 02:25:00
9:56 PM,46.0,41.0,83,30.02,10.0,NW,12.7,23.0,0.05,,Overcast,320,2012-12-05 02:56:00
10:25 PM,44.6,42.8,93,30.04,10.0,West,12.7,18.4,0.01,Rain,Light Rain,280,2012-12-05 03:25:00
10:45 PM,44.6,41.0,87,30.03,10.0,NW,9.2,-,0.02,Rain,Light Rain,310,2012-12-05 03:45:00
10:56 PM,44.1,41.0,89,30.03,9.0,NW,5.8,-,0.03,Rain,Light Rain,310,2012-12-05 03:56:00
11:56 PM,43.0,41.0,93,30.05,10.0,WSW,6.9,-,0.04,Rain,Light Rain,250,2012-12-05 04:56:00